sensor_id;sensor_type;location;lat;lon;timestamp;P1;P2;P0
74880;PMS5003;63427;49.654;6.596;2023-05-10T06:19:34;2;2;
74880;PMS5003;63427;49.654;6.596;2023-05-10T06:22:00;2;2;
74880;PMS5003;63427;49.654;6.596;2023-05-10T06:24:31;3;3;
74880;PMS5003;63427;49.654;6.596;2023-05-10T06:26:51;3;2;
74880;PMS5003;63427;49.654;6.596;2023-05-10T06:29:16;2;2;
74880;PMS5003;63427;49.654;6.596;2023-05-10T06:31:41;3;3;
74880;PMS5003;63427;49.654;6.596;2023-05-10T06:34:06;2;2;
74880;PMS5003;63427;49.654;6.596;2023-05-10T06:36:32;2;2;
74880;PMS5003;63427;49.654;6.596;2023-05-10T06:39:03;3;3;
74880;PMS5003;63427;49.654;6.596;2023-05-10T06:41:23;3;3;
74880;PMS5003;63427;49.654;6.596;2023-05-10T06:43:48;4;4;
74880;PMS5003;63427;49.654;6.596;2023-05-10T06:46:13;3;2;
74880;PMS5003;63427;49.654;6.596;2023-05-10T06:48:39;3;3;
74880;PMS5003;63427;49.654;6.596;2023-05-10T06:51:04;3;3;
74880;PMS5003;63427;49.654;6.596;2023-05-10T06:53:29;3;2;
74880;PMS5003;63427;49.654;6.596;2023-05-10T06:55:55;2;2;
74880;PMS5003;63427;49.654;6.596;2023-05-10T06:58:20;1;1;
74880;PMS5003;63427;49.654;6.596;2023-05-10T07:00:45;4;4;
74880;PMS5003;63427;49.654;6.596;2023-05-10T07:03:11;3;3;
74880;PMS5003;63427;49.654;6.596;2023-05-10T07:05:36;4;4;
74880;PMS5003;63427;49.654;6.596;2023-05-10T07:08:01;3;3;
74880;PMS5003;63427;49.654;6.596;2023-05-10T07:10:27;3;3;
74880;PMS5003;63427;49.654;6.596;2023-05-10T07:12:52;3;3;
74880;PMS5003;63427;49.654;6.596;2023-05-10T07:15:18;2;2;
74880;PMS5003;63427;49.654;6.596;2023-05-10T07:17:43;2;2;
74880;PMS5003;63427;49.654;6.596;2023-05-10T07:20:09;2;2;
74880;PMS5003;63427;49.654;6.596;2023-05-10T07:22:34;2;2;
74880;PMS5003;63427;49.654;6.596;2023-05-10T07:24:59;2;2;
74880;PMS5003;63427;49.654;6.596;2023-05-10T07:27:24;1;1;
74880;PMS5003;63427;49.654;6.596;2023-05-10T07:29:50;2;2;
74880;PMS5003;63427;49.654;6.596;2023-05-10T07:32:15;0;0;
74880;PMS5003;63427;49.654;6.596;2023-05-10T07:34:40;3;3;
74880;PMS5003;63427;49.654;6.596;2023-05-10T07:37:06;1;1;
74880;PMS5003;63427;49.654;6.596;2023-05-10T07:39:31;2;2;
74880;PMS5003;63427;49.654;6.596;2023-05-10T07:41:56;1;1;
74880;PMS5003;63427;49.654;6.596;2023-05-10T07:44:22;1;1;
74880;PMS5003;63427;49.654;6.596;2023-05-10T07:46:47;3;3;
74880;PMS5003;63427;49.654;6.596;2023-05-10T07:49:13;3;3;
74880;PMS5003;63427;49.654;6.596;2023-05-10T07:51:38;2;2;
74880;PMS5003;63427;49.654;6.596;2023-05-10T07:54:03;2;2;
74880;PMS5003;63427;49.654;6.596;2023-05-10T07:56:29;2;2;
74880;PMS5003;63427;49.654;6.596;2023-05-10T07:58:54;1;1;
74880;PMS5003;63427;49.654;6.596;2023-05-10T08:01:19;2;2;
74880;PMS5003;63427;49.654;6.596;2023-05-10T08:03:44;2;2;
74880;PMS5003;63427;49.654;6.596;2023-05-10T08:06:09;1;1;
74880;PMS5003;63427;49.654;6.596;2023-05-10T08:08:35;1;1;
74880;PMS5003;63427;49.654;6.596;2023-05-10T08:11:00;1;1;
74880;PMS5003;63427;49.654;6.596;2023-05-10T08:13:25;0;0;
74880;PMS5003;63427;49.654;6.596;2023-05-10T08:15:51;2;2;
74880;PMS5003;63427;49.654;6.596;2023-05-10T08:18:16;1;1;
74880;PMS5003;63427;49.654;6.596;2023-05-10T08:20:41;1;1;
74880;PMS5003;63427;49.654;6.596;2023-05-10T08:23:06;1;1;
74880;PMS5003;63427;49.654;6.596;2023-05-10T08:25:32;1;1;
74880;PMS5003;63427;49.654;6.596;2023-05-10T08:27:57;3;3;
74880;PMS5003;63427;49.654;6.596;2023-05-10T08:30:22;1;1;
74880;PMS5003;63427;49.654;6.596;2023-05-10T08:32:47;3;2;
74880;PMS5003;63427;49.654;6.596;2023-05-10T08:35:13;2;2;
74880;PMS5003;63427;49.654;6.596;2023-05-10T08:37:39;2;2;
74880;PMS5003;63427;49.654;6.596;2023-05-10T08:40:04;2;2;
74880;PMS5003;63427;49.654;6.596;2023-05-10T08:42:30;3;3;
74880;PMS5003;63427;49.654;6.596;2023-05-10T08:44:54;4;4;
74880;PMS5003;63427;49.654;6.596;2023-05-10T08:47:19;1;1;
74880;PMS5003;63427;49.654;6.596;2023-05-10T08:49:45;3;3;
74880;PMS5003;63427;49.654;6.596;2023-05-10T08:52:10;3;3;
74880;PMS5003;63427;49.654;6.596;2023-05-10T08:54:35;3;3;
74880;PMS5003;63427;49.654;6.596;2023-05-10T08:57:01;3;3;
74880;PMS5003;63427;49.654;6.596;2023-05-10T08:59:26;3;3;
74880;PMS5003;63427;49.654;6.596;2023-05-10T09:01:52;5;5;
74880;PMS5003;63427;49.654;6.596;2023-05-10T09:04:17;4;4;
74880;PMS5003;63427;49.654;6.596;2023-05-10T09:06:42;3;3;
74880;PMS5003;63427;49.654;6.596;2023-05-10T09:09:08;3;3;
74880;PMS5003;63427;49.654;6.596;2023-05-10T09:11:33;3;3;
74880;PMS5003;63427;49.654;6.596;2023-05-10T09:13:58;5;5;
74880;PMS5003;63427;49.654;6.596;2023-05-10T09:16:24;4;3;
74880;PMS5003;63427;49.654;6.596;2023-05-10T09:18:50;6;6;
74880;PMS5003;63427;49.654;6.596;2023-05-10T09:21:16;5;5;
74880;PMS5003;63427;49.654;6.596;2023-05-10T09:23:42;4;4;
74880;PMS5003;63427;49.654;6.596;2023-05-10T09:26:06;4;4;
74880;PMS5003;63427;49.654;6.596;2023-05-10T09:28:31;4;4;
74880;PMS5003;63427;49.654;6.596;2023-05-10T09:30:56;4;4;
74880;PMS5003;63427;49.654;6.596;2023-05-10T09:33:22;4;4;
74880;PMS5003;63427;49.654;6.596;2023-05-10T09:35:47;5;5;
74880;PMS5003;63427;49.654;6.596;2023-05-10T09:38:12;5;5;
74880;PMS5003;63427;49.654;6.596;2023-05-10T09:40:38;6;6;
74880;PMS5003;63427;49.654;6.596;2023-05-10T09:43:04;4;4;
74880;PMS5003;63427;49.654;6.596;2023-05-10T09:45:30;5;5;
74880;PMS5003;63427;49.654;6.596;2023-05-10T09:47:55;4;4;
74880;PMS5003;63427;49.654;6.596;2023-05-10T09:50:20;4;4;
74880;PMS5003;63427;49.654;6.596;2023-05-10T09:52:46;4;4;
74880;PMS5003;63427;49.654;6.596;2023-05-10T09:55:10;4;4;
74880;PMS5003;63427;49.654;6.596;2023-05-10T09:57:36;3;3;
74880;PMS5003;63427;49.654;6.596;2023-05-10T10:00:01;4;4;
74880;PMS5003;63427;49.654;6.596;2023-05-10T10:02:28;6;6;
74880;PMS5003;63427;49.654;6.596;2023-05-10T10:04:51;3;3;
74880;PMS5003;63427;49.654;6.596;2023-05-10T10:07:17;4;4;
74880;PMS5003;63427;49.654;6.596;2023-05-10T10:09:42;4;3;
74880;PMS5003;63427;49.654;6.596;2023-05-10T10:12:07;4;4;
74880;PMS5003;63427;49.654;6.596;2023-05-10T10:14:33;3;3;
74880;PMS5003;63427;49.654;6.596;2023-05-10T10:16:58;3;3;
74880;PMS5003;63427;49.654;6.596;2023-05-10T10:19:24;4;4;
74880;PMS5003;63427;49.654;6.596;2023-05-10T10:21:49;3;3;
74880;PMS5003;63427;49.654;6.596;2023-05-10T10:24:13;6;6;
74880;PMS5003;63427;49.654;6.596;2023-05-10T10:26:39;5;5;
74880;PMS5003;63427;49.654;6.596;2023-05-10T10:29:07;4;4;
74880;PMS5003;63427;49.654;6.596;2023-05-10T10:31:32;4;4;
74880;PMS5003;63427;49.654;6.596;2023-05-10T10:33:56;4;4;
74880;PMS5003;63427;49.654;6.596;2023-05-10T10:36:19;4;4;
74880;PMS5003;63427;49.654;6.596;2023-05-10T10:41:10;3;3;
74880;PMS5003;63427;49.654;6.596;2023-05-10T10:43:35;4;4;
74880;PMS5003;63427;49.654;6.596;2023-05-10T10:48:25;4;4;
74880;PMS5003;63427;49.654;6.596;2023-05-10T10:53:15;3;3;
74880;PMS5003;63427;49.654;6.596;2023-05-10T10:55:46;3;2;
74880;PMS5003;63427;49.654;6.596;2023-05-10T10:58:06;3;3;
74880;PMS5003;63427;49.654;6.596;2023-05-10T11:00:31;3;3;
74880;PMS5003;63427;49.654;6.596;2023-05-10T11:02:57;4;4;
74880;PMS5003;63427;49.654;6.596;2023-05-10T11:07:51;5;5;
74880;PMS5003;63427;49.654;6.596;2023-05-10T11:10:11;3;3;
74880;PMS5003;63427;49.654;6.596;2023-05-10T11:15:01;4;4;
74880;PMS5003;63427;49.654;6.596;2023-05-10T11:17:26;3;3;
74880;PMS5003;63427;49.654;6.596;2023-05-10T11:22:16;3;3;
74880;PMS5003;63427;49.654;6.596;2023-05-10T11:24:46;3;3;
74880;PMS5003;63427;49.654;6.596;2023-05-10T11:27:07;4;3;
74880;PMS5003;63427;49.654;6.596;2023-05-10T11:29:32;3;3;
74880;PMS5003;63427;49.654;6.596;2023-05-10T11:31:57;2;2;
74880;PMS5003;63427;49.654;6.596;2023-05-10T11:34:23;3;3;
74880;PMS5003;63427;49.654;6.596;2023-05-10T11:36:47;3;3;
74880;PMS5003;63427;49.654;6.596;2023-05-10T11:39:12;4;4;
74880;PMS5003;63427;49.654;6.596;2023-05-10T11:41:37;2;2;
74880;PMS5003;63427;49.654;6.596;2023-05-10T11:44:03;4;3;
74880;PMS5003;63427;49.654;6.596;2023-05-10T11:46:28;3;2;
74880;PMS5003;63427;49.654;6.596;2023-05-10T11:48:54;1;1;
74880;PMS5003;63427;49.654;6.596;2023-05-10T11:51:19;5;4;
74880;PMS5003;63427;49.654;6.596;2023-05-10T11:53:43;2;2;
74880;PMS5003;63427;49.654;6.596;2023-05-10T11:56:08;2;2;
74880;PMS5003;63427;49.654;6.596;2023-05-10T11:58:33;3;3;
74880;PMS5003;63427;49.654;6.596;2023-05-10T12:00:58;2;2;
74880;PMS5003;63427;49.654;6.596;2023-05-10T12:03:23;3;3;
74880;PMS5003;63427;49.654;6.596;2023-05-10T12:05:49;1;1;
74880;PMS5003;63427;49.654;6.596;2023-05-10T12:08:15;1;1;
74880;PMS5003;63427;49.654;6.596;2023-05-10T12:10:41;2;2;
74880;PMS5003;63427;49.654;6.596;2023-05-10T12:13:10;2;2;
74880;PMS5003;63427;49.654;6.596;2023-05-10T12:15:32;3;3;
74880;PMS5003;63427;49.654;6.596;2023-05-10T12:17:58;1;1;
74880;PMS5003;63427;49.654;6.596;2023-05-10T12:20:26;2;2;
74880;PMS5003;63427;49.654;6.596;2023-05-10T12:22:50;2;2;
74880;PMS5003;63427;49.654;6.596;2023-05-10T12:25:16;2;2;
74880;PMS5003;63427;49.654;6.596;2023-05-10T12:30:07;3;3;
74880;PMS5003;63427;49.654;6.596;2023-05-10T12:32:37;2;2;
74880;PMS5003;63427;49.654;6.596;2023-05-10T12:34:59;3;3;
74880;PMS5003;63427;49.654;6.596;2023-05-10T12:37:27;3;3;
74880;PMS5003;63427;49.654;6.596;2023-05-10T12:39:51;2;2;
74880;PMS5003;63427;49.654;6.596;2023-05-10T12:42:16;2;2;
74880;PMS5003;63427;49.654;6.596;2023-05-10T12:44:42;2;2;
74880;PMS5003;63427;49.654;6.596;2023-05-10T12:47:08;2;2;
74880;PMS5003;63427;49.654;6.596;2023-05-10T12:49:34;2;2;
74880;PMS5003;63427;49.654;6.596;2023-05-10T12:52:00;3;2;
74880;PMS5003;63427;49.654;6.596;2023-05-10T12:54:26;2;2;
74880;PMS5003;63427;49.654;6.596;2023-05-10T12:56:51;1;1;
74880;PMS5003;63427;49.654;6.596;2023-05-10T12:59:17;1;1;
74880;PMS5003;63427;49.654;6.596;2023-05-10T13:01:43;1;1;
74880;PMS5003;63427;49.654;6.596;2023-05-10T13:04:09;1;1;
74880;PMS5003;63427;49.654;6.596;2023-05-10T13:06:35;1;1;
74880;PMS5003;63427;49.654;6.596;2023-05-10T13:09:00;2;2;
74880;PMS5003;63427;49.654;6.596;2023-05-10T13:11:26;1;1;
74880;PMS5003;63427;49.654;6.596;2023-05-10T13:13:52;0;0;
74880;PMS5003;63427;49.654;6.596;2023-05-10T13:16:18;1;1;
74880;PMS5003;63427;49.654;6.596;2023-05-10T13:18:43;2;2;
74880;PMS5003;63427;49.654;6.596;2023-05-10T13:21:09;3;2;
74880;PMS5003;63427;49.654;6.596;2023-05-10T13:23:35;0;0;
74880;PMS5003;63427;49.654;6.596;2023-05-10T13:26:01;2;2;
74880;PMS5003;63427;49.654;6.596;2023-05-10T13:28:26;2;2;
74880;PMS5003;63427;49.654;6.596;2023-05-10T13:30:52;1;1;
74880;PMS5003;63427;49.654;6.596;2023-05-10T13:33:18;0;0;
74880;PMS5003;63427;49.654;6.596;2023-05-10T13:35:43;0;0;
74880;PMS5003;63427;49.654;6.596;2023-05-10T13:38:09;1;1;
74880;PMS5003;63427;49.654;6.596;2023-05-10T13:40:34;0;0;
74880;PMS5003;63427;49.654;6.596;2023-05-10T13:43:00;1;1;
74880;PMS5003;63427;49.654;6.596;2023-05-10T13:45:26;0;0;
74880;PMS5003;63427;49.654;6.596;2023-05-10T13:47:51;1;0;
74880;PMS5003;63427;49.654;6.596;2023-05-10T13:50:17;2;1;
74880;PMS5003;63427;49.654;6.596;2023-05-10T13:52:42;1;1;
74880;PMS5003;63427;49.654;6.596;2023-05-10T13:55:08;0;0;
74880;PMS5003;63427;49.654;6.596;2023-05-10T13:57:34;0;0;
74880;PMS5003;63427;49.654;6.596;2023-05-10T13:59:59;1;0;
74880;PMS5003;63427;49.654;6.596;2023-05-10T14:02:25;0;0;
74880;PMS5003;63427;49.654;6.596;2023-05-10T14:04:50;0;0;
74880;PMS5003;63427;49.654;6.596;2023-05-10T14:07:16;1;1;
74880;PMS5003;63427;49.654;6.596;2023-05-10T14:09:41;0;0;
74880;PMS5003;63427;49.654;6.596;2023-05-10T14:12:07;0;0;
74880;PMS5003;63427;49.654;6.596;2023-05-10T14:14:32;0;0;
74880;PMS5003;63427;49.654;6.596;2023-05-10T14:16:58;0;0;
74880;PMS5003;63427;49.654;6.596;2023-05-10T14:19:23;0;0;
74880;PMS5003;63427;49.654;6.596;2023-05-10T14:21:49;0;0;
74880;PMS5003;63427;49.654;6.596;2023-05-10T14:24:15;0;0;
74880;PMS5003;63427;49.654;6.596;2023-05-10T14:26:40;1;1;
74880;PMS5003;63427;49.654;6.596;2023-05-10T14:29:06;0;0;
74880;PMS5003;63427;49.654;6.596;2023-05-10T14:31:31;0;0;
74880;PMS5003;63427;49.654;6.596;2023-05-10T14:33:57;0;0;
74880;PMS5003;63427;49.654;6.596;2023-05-10T14:36:23;0;0;
74880;PMS5003;63427;49.654;6.596;2023-05-10T14:38:48;0;0;
74880;PMS5003;63427;49.654;6.596;2023-05-10T14:41:15;1;1;
74880;PMS5003;63427;49.654;6.596;2023-05-10T14:43:39;1;1;
74880;PMS5003;63427;49.654;6.596;2023-05-10T14:46:06;1;1;
74880;PMS5003;63427;49.654;6.596;2023-05-10T14:48:30;1;1;
74880;PMS5003;63427;49.654;6.596;2023-05-10T14:50:56;1;1;
74880;PMS5003;63427;49.654;6.596;2023-05-10T14:53:22;2;2;
74880;PMS5003;63427;49.654;6.596;2023-05-10T14:55:47;2;2;
74880;PMS5003;63427;49.654;6.596;2023-05-10T14:58:13;0;0;
74880;PMS5003;63427;49.654;6.596;2023-05-10T15:00:40;1;1;
74880;PMS5003;63427;49.654;6.596;2023-05-10T15:03:05;1;1;
74880;PMS5003;63427;49.654;6.596;2023-05-10T15:05:30;3;2;
74880;PMS5003;63427;49.654;6.596;2023-05-10T15:07:56;1;1;
74880;PMS5003;63427;49.654;6.596;2023-05-10T15:10:21;2;2;
74880;PMS5003;63427;49.654;6.596;2023-05-10T15:12:47;1;1;
74880;PMS5003;63427;49.654;6.596;2023-05-10T15:15:13;1;1;
74880;PMS5003;63427;49.654;6.596;2023-05-10T15:17:38;2;2;
74880;PMS5003;63427;49.654;6.596;2023-05-10T15:20:05;2;2;
74880;PMS5003;63427;49.654;6.596;2023-05-10T15:22:30;2;2;
74880;PMS5003;63427;49.654;6.596;2023-05-10T15:24:55;2;2;
74880;PMS5003;63427;49.654;6.596;2023-05-10T15:27:21;2;2;
74880;PMS5003;63427;49.654;6.596;2023-05-10T15:29:47;1;1;
74880;PMS5003;63427;49.654;6.596;2023-05-10T15:32:13;2;2;
74880;PMS5003;63427;49.654;6.596;2023-05-10T15:34:38;2;2;
74880;PMS5003;63427;49.654;6.596;2023-05-10T15:37:04;2;2;
74880;PMS5003;63427;49.654;6.596;2023-05-10T15:39:30;2;2;
74880;PMS5003;63427;49.654;6.596;2023-05-10T15:41:56;1;1;
74880;PMS5003;63427;49.654;6.596;2023-05-10T15:44:27;2;2;
74880;PMS5003;63427;49.654;6.596;2023-05-10T15:46:47;1;1;
74880;PMS5003;63427;49.654;6.596;2023-05-10T15:49:13;3;3;
74880;PMS5003;63427;49.654;6.596;2023-05-10T15:51:39;1;1;
74880;PMS5003;63427;49.654;6.596;2023-05-10T15:54:05;1;1;
74880;PMS5003;63427;49.654;6.596;2023-05-10T15:56:30;3;2;
74880;PMS5003;63427;49.654;6.596;2023-05-10T15:58:56;1;1;
74880;PMS5003;63427;49.654;6.596;2023-05-10T16:03:48;1;1;
74880;PMS5003;63427;49.654;6.596;2023-05-10T16:06:16;1;1;
74880;PMS5003;63427;49.654;6.596;2023-05-10T16:08:40;2;2;
74880;PMS5003;63427;49.654;6.596;2023-05-10T16:11:06;2;2;
74880;PMS5003;63427;49.654;6.596;2023-05-10T16:13:31;2;1;
74880;PMS5003;63427;49.654;6.596;2023-05-10T16:15:57;1;1;
74880;PMS5003;63427;49.654;6.596;2023-05-10T16:18:23;2;2;
74880;PMS5003;63427;49.654;6.596;2023-05-10T16:20:49;0;0;
74880;PMS5003;63427;49.654;6.596;2023-05-10T16:23:15;2;2;
74880;PMS5003;63427;49.654;6.596;2023-05-10T16:25:40;2;2;
74880;PMS5003;63427;49.654;6.596;2023-05-10T16:28:06;2;2;
74880;PMS5003;63427;49.654;6.596;2023-05-10T16:30:32;1;1;
74880;PMS5003;63427;49.654;6.596;2023-05-10T16:32:59;2;2;
74880;PMS5003;63427;49.654;6.596;2023-05-10T16:35:24;2;2;
74880;PMS5003;63427;49.654;6.596;2023-05-10T16:37:50;1;1;
74880;PMS5003;63427;49.654;6.596;2023-05-10T16:40:16;2;2;
74880;PMS5003;63427;49.654;6.596;2023-05-10T16:42:41;0;0;
74880;PMS5003;63427;49.654;6.596;2023-05-10T16:45:07;2;2;
74880;PMS5003;63427;49.654;6.596;2023-05-10T16:47:33;2;2;
74880;PMS5003;63427;49.654;6.596;2023-05-10T16:49:59;2;2;
74880;PMS5003;63427;49.654;6.596;2023-05-10T16:52:25;1;1;
74880;PMS5003;63427;49.654;6.596;2023-05-10T16:54:51;1;1;
74880;PMS5003;63427;49.654;6.596;2023-05-10T16:57:16;1;1;
74880;PMS5003;63427;49.654;6.596;2023-05-10T16:59:41;1;1;
74880;PMS5003;63427;49.654;6.596;2023-05-10T17:02:06;1;1;
74880;PMS5003;63427;49.654;6.596;2023-05-10T17:04:31;2;2;
74880;PMS5003;63427;49.654;6.596;2023-05-10T17:06:56;1;1;
74880;PMS5003;63427;49.654;6.596;2023-05-10T17:09:22;1;1;
74880;PMS5003;63427;49.654;6.596;2023-05-10T17:11:46;1;1;
74880;PMS5003;63427;49.654;6.596;2023-05-10T17:14:11;1;1;
74880;PMS5003;63427;49.654;6.596;2023-05-10T17:16:36;1;1;
74880;PMS5003;63427;49.654;6.596;2023-05-10T17:19:01;2;2;
74880;PMS5003;63427;49.654;6.596;2023-05-10T17:21:26;1;1;
74880;PMS5003;63427;49.654;6.596;2023-05-10T17:23:51;1;1;
74880;PMS5003;63427;49.654;6.596;2023-05-10T17:26:16;0;0;
74880;PMS5003;63427;49.654;6.596;2023-05-10T17:28:42;1;1;
74880;PMS5003;63427;49.654;6.596;2023-05-10T17:31:06;1;1;
74880;PMS5003;63427;49.654;6.596;2023-05-10T17:33:32;2;2;
74880;PMS5003;63427;49.654;6.596;2023-05-10T17:35:57;1;1;
74880;PMS5003;63427;49.654;6.596;2023-05-10T17:38:22;0;0;
74880;PMS5003;63427;49.654;6.596;2023-05-10T17:40:47;1;1;
74880;PMS5003;63427;49.654;6.596;2023-05-10T17:43:12;2;2;
74880;PMS5003;63427;49.654;6.596;2023-05-10T17:45:45;1;1;
74880;PMS5003;63427;49.654;6.596;2023-05-10T17:48:03;2;2;
74880;PMS5003;63427;49.654;6.596;2023-05-10T17:50:28;1;1;
74880;PMS5003;63427;49.654;6.596;2023-05-10T17:52:53;0;0;
74880;PMS5003;63427;49.654;6.596;2023-05-10T17:55:18;2;2;
74880;PMS5003;63427;49.654;6.596;2023-05-10T17:57:43;2;2;
74880;PMS5003;63427;49.654;6.596;2023-05-10T18:00:09;2;1;
74880;PMS5003;63427;49.654;6.596;2023-05-10T18:02:34;1;1;
74880;PMS5003;63427;49.654;6.596;2023-05-10T18:04:59;0;0;
74880;PMS5003;63427;49.654;6.596;2023-05-10T18:07:24;1;1;
74880;PMS5003;63427;49.654;6.596;2023-05-10T18:09:49;1;1;
74880;PMS5003;63427;49.654;6.596;2023-05-10T18:12:15;1;1;
74880;PMS5003;63427;49.654;6.596;2023-05-10T18:14:40;1;1;
74880;PMS5003;63427;49.654;6.596;2023-05-10T18:17:06;2;2;
74880;PMS5003;63427;49.654;6.596;2023-05-10T18:19:31;2;2;
74880;PMS5003;63427;49.654;6.596;2023-05-10T18:21:56;0;0;
74880;PMS5003;63427;49.654;6.596;2023-05-10T18:24:22;1;1;
74880;PMS5003;63427;49.654;6.596;2023-05-10T18:26:47;3;2;
74880;PMS5003;63427;49.654;6.596;2023-05-10T18:29:14;2;2;
74880;PMS5003;63427;49.654;6.596;2023-05-10T18:31:37;1;1;
74880;PMS5003;63427;49.654;6.596;2023-05-10T18:34:02;1;1;
74880;PMS5003;63427;49.654;6.596;2023-05-10T18:36:30;1;1;
74880;PMS5003;63427;49.654;6.596;2023-05-10T18:38:53;1;1;
74880;PMS5003;63427;49.654;6.596;2023-05-10T18:41:18;1;1;
74880;PMS5003;63427;49.654;6.596;2023-05-10T18:43:43;2;2;
74880;PMS5003;63427;49.654;6.596;2023-05-10T18:46:09;1;1;
74880;PMS5003;63427;49.654;6.596;2023-05-10T18:48:34;1;1;
74880;PMS5003;63427;49.654;6.596;2023-05-10T18:50:59;2;2;
74880;PMS5003;63427;49.654;6.596;2023-05-10T18:53:25;1;1;
74880;PMS5003;63427;49.654;6.596;2023-05-10T18:55:54;3;3;
74880;PMS5003;63427;49.654;6.596;2023-05-10T18:58:15;1;1;
74880;PMS5003;63427;49.654;6.596;2023-05-10T19:00:41;1;1;
74880;PMS5003;63427;49.654;6.596;2023-05-10T19:03:07;2;2;
74880;PMS5003;63427;49.654;6.596;2023-05-10T19:05:31;2;2;
74880;PMS5003;63427;49.654;6.596;2023-05-10T19:07:57;1;1;
74880;PMS5003;63427;49.654;6.596;2023-05-10T19:10:22;3;2;
74880;PMS5003;63427;49.654;6.596;2023-05-10T19:12:47;1;1;
74880;PMS5003;63427;49.654;6.596;2023-05-10T19:15:12;2;2;
74880;PMS5003;63427;49.654;6.596;2023-05-10T19:17:38;2;2;
74880;PMS5003;63427;49.654;6.596;2023-05-10T19:20:04;2;1;
74880;PMS5003;63427;49.654;6.596;2023-05-10T19:22:28;1;1;
74880;PMS5003;63427;49.654;6.596;2023-05-10T19:24:54;2;2;
74880;PMS5003;63427;49.654;6.596;2023-05-10T19:27:19;4;3;
74880;PMS5003;63427;49.654;6.596;2023-05-10T19:29:45;2;2;
74880;PMS5003;63427;49.654;6.596;2023-05-10T19:32:10;1;1;
74880;PMS5003;63427;49.654;6.596;2023-05-10T19:34:35;2;2;
74880;PMS5003;63427;49.654;6.596;2023-05-10T19:37:01;2;2;
74880;PMS5003;63427;49.654;6.596;2023-05-10T19:39:26;2;2;
74880;PMS5003;63427;49.654;6.596;2023-05-10T19:41:52;3;2;
74880;PMS5003;63427;49.654;6.596;2023-05-10T19:44:17;2;2;
74880;PMS5003;63427;49.654;6.596;2023-05-10T19:46:42;1;1;
74880;PMS5003;63427;49.654;6.596;2023-05-10T19:49:08;2;2;
74880;PMS5003;63427;49.654;6.596;2023-05-10T19:51:33;0;0;
74880;PMS5003;63427;49.654;6.596;2023-05-10T19:53:59;2;2;
74880;PMS5003;63427;49.654;6.596;2023-05-10T19:56:24;2;2;
74880;PMS5003;63427;49.654;6.596;2023-05-10T19:58:55;2;2;
74880;PMS5003;63427;49.654;6.596;2023-05-10T20:01:15;2;2;
74880;PMS5003;63427;49.654;6.596;2023-05-10T20:03:40;1;1;
74880;PMS5003;63427;49.654;6.596;2023-05-10T20:06:06;2;2;
74880;PMS5003;63427;49.654;6.596;2023-05-10T20:08:31;1;1;
74880;PMS5003;63427;49.654;6.596;2023-05-10T20:10:57;2;2;
74880;PMS5003;63427;49.654;6.596;2023-05-10T20:13:22;2;2;
74880;PMS5003;63427;49.654;6.596;2023-05-10T20:15:48;4;4;
74880;PMS5003;63427;49.654;6.596;2023-05-10T20:18:13;9;9;
74880;PMS5003;63427;49.654;6.596;2023-05-10T20:20:38;8;8;
74880;PMS5003;63427;49.654;6.596;2023-05-10T20:23:04;5;5;
74880;PMS5003;63427;49.654;6.596;2023-05-10T20:25:29;4;4;
74880;PMS5003;63427;49.654;6.596;2023-05-10T20:27:55;3;3;
74880;PMS5003;63427;49.654;6.596;2023-05-10T20:30:20;3;3;
74880;PMS5003;63427;49.654;6.596;2023-05-10T20:32:46;2;2;
74880;PMS5003;63427;49.654;6.596;2023-05-10T20:35:11;2;2;
74880;PMS5003;63427;49.654;6.596;2023-05-10T20:37:37;2;2;
74880;PMS5003;63427;49.654;6.596;2023-05-10T20:40:02;2;2;
74880;PMS5003;63427;49.654;6.596;2023-05-10T20:42:28;3;3;
74880;PMS5003;63427;49.654;6.596;2023-05-10T20:44:54;2;2;
74880;PMS5003;63427;49.654;6.596;2023-05-10T20:47:19;2;2;
74880;PMS5003;63427;49.654;6.596;2023-05-10T20:49:49;3;3;
74880;PMS5003;63427;49.654;6.596;2023-05-10T20:52:10;2;2;
74880;PMS5003;63427;49.654;6.596;2023-05-10T20:54:35;3;3;
74880;PMS5003;63427;49.654;6.596;2023-05-10T20:57:01;4;4;
74880;PMS5003;63427;49.654;6.596;2023-05-10T20:59:27;2;2;
74880;PMS5003;63427;49.654;6.596;2023-05-10T21:01:52;3;3;
74880;PMS5003;63427;49.654;6.596;2023-05-10T21:04:17;4;4;
74880;PMS5003;63427;49.654;6.596;2023-05-10T21:06:44;3;3;
74880;PMS5003;63427;49.654;6.596;2023-05-10T21:09:08;3;3;
74880;PMS5003;63427;49.654;6.596;2023-05-10T21:11:34;3;3;
74880;PMS5003;63427;49.654;6.596;2023-05-10T21:14:00;6;6;
74880;PMS5003;63427;49.654;6.596;2023-05-10T21:16:25;20;19;
74880;PMS5003;63427;49.654;6.596;2023-05-10T21:18:55;12;12;
74880;PMS5003;63427;49.654;6.596;2023-05-10T21:21:26;5;5;
74880;PMS5003;63427;49.654;6.596;2023-05-10T21:23:41;4;4;
74880;PMS5003;63427;49.654;6.596;2023-05-10T21:26:07;4;4;
74880;PMS5003;63427;49.654;6.596;2023-05-10T21:28:33;4;4;
74880;PMS5003;63427;49.654;6.596;2023-05-10T21:30:58;6;6;
74880;PMS5003;63427;49.654;6.596;2023-05-10T21:33:24;4;4;
74880;PMS5003;63427;49.654;6.596;2023-05-10T21:35:49;5;5;
74880;PMS5003;63427;49.654;6.596;2023-05-10T21:38:15;5;5;
74880;PMS5003;63427;49.654;6.596;2023-05-10T21:40:41;5;5;
74880;PMS5003;63427;49.654;6.596;2023-05-10T21:43:19;5;5;
74880;PMS5003;63427;49.654;6.596;2023-05-10T21:45:32;5;5;
74880;PMS5003;63427;49.654;6.596;2023-05-10T21:47:57;7;7;
74880;PMS5003;63427;49.654;6.596;2023-05-10T21:50:23;8;8;
74880;PMS5003;63427;49.654;6.596;2023-05-10T21:52:48;7;7;
74880;PMS5003;63427;49.654;6.596;2023-05-10T21:55:14;4;4;
74880;PMS5003;63427;49.654;6.596;2023-05-10T21:57:40;2;2;
74880;PMS5003;63427;49.654;6.596;2023-05-10T22:00:10;3;3;
74880;PMS5003;63427;49.654;6.596;2023-05-10T22:02:31;2;2;
74880;PMS5003;63427;49.654;6.596;2023-05-10T22:04:56;2;2;
74880;PMS5003;63427;49.654;6.596;2023-05-10T22:07:22;3;3;
74880;PMS5003;63427;49.654;6.596;2023-05-10T22:09:47;3;3;
74880;PMS5003;63427;49.654;6.596;2023-05-10T22:12:13;2;2;
74880;PMS5003;63427;49.654;6.596;2023-05-10T22:14:39;3;3;
74880;PMS5003;63427;49.654;6.596;2023-05-10T22:17:04;3;3;
74880;PMS5003;63427;49.654;6.596;2023-05-10T22:19:30;4;4;
74880;PMS5003;63427;49.654;6.596;2023-05-10T22:21:55;3;3;
74880;PMS5003;63427;49.654;6.596;2023-05-10T22:24:21;4;4;
74880;PMS5003;63427;49.654;6.596;2023-05-10T22:26:47;5;5;
74880;PMS5003;63427;49.654;6.596;2023-05-10T22:29:12;6;6;
74880;PMS5003;63427;49.654;6.596;2023-05-10T22:31:37;5;5;
74880;PMS5003;63427;49.654;6.596;2023-05-10T22:34:03;4;4;
74880;PMS5003;63427;49.654;6.596;2023-05-10T22:36:29;6;5;
74880;PMS5003;63427;49.654;6.596;2023-05-10T22:38:54;2;2;
74880;PMS5003;63427;49.654;6.596;2023-05-10T22:41:20;3;3;
74880;PMS5003;63427;49.654;6.596;2023-05-10T22:43:46;2;2;
74880;PMS5003;63427;49.654;6.596;2023-05-10T22:46:11;3;3;
74880;PMS5003;63427;49.654;6.596;2023-05-10T22:48:37;3;3;
74880;PMS5003;63427;49.654;6.596;2023-05-10T22:51:03;4;4;
74880;PMS5003;63427;49.654;6.596;2023-05-10T22:53:29;2;2;
74880;PMS5003;63427;49.654;6.596;2023-05-10T22:55:54;2;2;
74880;PMS5003;63427;49.654;6.596;2023-05-10T22:58:19;2;2;
74880;PMS5003;63427;49.654;6.596;2023-05-10T23:00:46;3;3;
74880;PMS5003;63427;49.654;6.596;2023-05-10T23:03:11;2;2;
74880;PMS5003;63427;49.654;6.596;2023-05-10T23:05:36;3;3;
74880;PMS5003;63427;49.654;6.596;2023-05-10T23:08:02;3;3;
74880;PMS5003;63427;49.654;6.596;2023-05-10T23:10:32;4;4;
74880;PMS5003;63427;49.654;6.596;2023-05-10T23:12:53;2;2;
74880;PMS5003;63427;49.654;6.596;2023-05-10T23:15:18;3;3;